Time;durP1;ratioP1;P1;durP2;ratioP2;P2;SDS_P1;SDS_P2;PMS_P1;PMS_P2;Temp;Humidity;BMP_temperature;BMP_pressure;BME280_temperature;BME280_humidity;BME280_pressure;Samples;Min_cycle;Max_cycle;Signal;HPM_P1;HPM_P2
2023/12/14 00:01:18;;;;;;;11.25;8.35;;;8.50;74.80;;;7.17;100.00;99472.44;4966665;28;20038;-77
2023/12/14 00:03:45;;;;;;;10.60;9.00;;;8.50;75.10;;;7.15;100.00;99479.47;4969079;28;20073;-76
2023/12/14 00:06:13;;;;;;;9.80;8.80;;;8.40;75.60;;;7.03;100.00;99468.38;4986902;28;20050;-77
2023/12/14 00:08:41;;;;;;;11.02;8.35;;;8.40;76.40;;;7.16;100.00;99508.19;4982345;28;20411;-77
2023/12/14 00:11:10;;;;;;;10.52;8.40;;;8.40;75.50;;;7.08;100.00;99491.81;4966394;28;20583;-76
2023/12/14 00:13:38;;;;;;;11.10;8.85;;;8.40;76.20;;;7.16;100.00;99509.97;4973960;28;20457;-77
2023/12/14 00:16:06;;;;;;;12.80;8.60;;;8.50;75.60;;;7.15;100.00;99506.47;4973707;28;20039;-76
2023/12/14 00:18:33;;;;;;;11.30;9.13;;;8.50;74.60;;;7.03;100.00;99488.47;4965643;28;20043;-77
2023/12/14 00:21:00;;;;;;;11.98;9.77;;;8.40;74.30;;;7.13;100.00;99512.66;4971126;28;20465;-77
2023/12/14 00:23:27;;;;;;;11.65;9.63;;;8.40;73.80;;;7.14;100.00;99519.59;4984847;28;20039;-77
2023/12/14 00:25:55;;;;;;;16.75;10.30;;;8.30;74.10;;;7.09;100.00;99528.41;4965701;28;20043;-76
2023/12/14 00:28:22;;;;;;;12.55;8.82;;;8.40;75.40;;;7.13;100.00;99534.44;4982278;28;20396;-76
2023/12/14 00:30:52;;;;;;;13.13;9.73;;;8.40;74.90;;;7.04;100.00;99516.34;4975357;28;20122;-76
2023/12/14 00:33:19;;;;;;;13.35;9.43;;;8.40;74.20;;;7.20;100.00;99538.63;4946698;28;20048;-76
2023/12/14 00:35:46;;;;;;;12.73;9.35;;;8.40;72.90;;;7.18;100.00;99529.09;4981102;28;20035;-76
2023/12/14 00:38:14;;;;;;;13.52;10.10;;;8.50;71.10;;;7.09;100.00;99520.53;4966257;28;20565;-76
2023/12/14 00:40:41;;;;;;;14.75;10.43;;;8.50;69.70;;;7.06;100.00;99514.56;4965998;28;20097;-76
2023/12/14 00:43:08;;;;;;;12.35;9.85;;;8.50;69.20;;;7.26;100.00;99550.72;4979804;28;20038;-77
2023/12/14 00:45:35;;;;;;;12.43;9.93;;;8.50;67.10;;;7.11;100.00;99528.38;4968326;28;20122;-76
2023/12/14 00:48:02;;;;;;;10.88;9.38;;;8.50;67.20;;;7.26;100.00;99552.47;4974214;28;20043;-76
2023/12/14 00:50:29;;;;;;;14.95;10.85;;;8.50;66.90;;;7.24;100.00;99558.59;4986315;28;20073;-76
2023/12/14 00:52:56;;;;;;;13.85;9.82;;;8.50;67.90;;;7.17;100.00;99564.84;4978421;28;20116;-76
2023/12/14 00:55:23;;;;;;;15.70;10.68;;;8.40;67.70;;;7.06;100.00;99551.16;4965791;28;20419;-76
2023/12/14 00:57:50;;;;;;;13.45;10.43;;;8.40;67.80;;;7.12;100.00;99566.72;4969609;28;20267;-76
2023/12/14 01:00:18;;;;;;;17.30;11.95;;;8.30;70.60;;;7.13;100.00;99578.91;4969617;28;20482;-77
2023/12/14 01:02:45;;;;;;;16.70;11.90;;;8.30;73.90;;;7.01;100.00;99571.31;4988596;28;20137;-77
2023/12/14 01:05:15;;;;;;;14.90;11.73;;;8.30;75.50;;;6.92;100.00;99561.91;4989741;28;20126;-77
2023/12/14 01:07:42;;;;;;;14.63;13.02;;;8.30;75.00;;;6.94;100.00;99571.47;4961866;28;20050;-76
2023/12/14 01:10:09;;;;;;;14.98;11.38;;;8.30;75.80;;;7.00;100.00;99585.28;4969468;28;20038;-76
2023/12/14 01:12:37;;;;;;;16.42;11.65;;;8.30;77.20;;;7.04;100.00;99595.66;4991115;28;20050;-77
2023/12/14 01:15:05;;;;;;;14.95;10.52;;;8.40;76.40;;;7.16;100.00;99617.22;4974253;28;20042;-77
2023/12/14 01:17:35;;;;;;;23.38;12.23;;;8.40;75.60;;;7.06;100.00;99588.63;4971672;28;20051;-77
2023/12/14 01:20:07;;;;;;;12.45;10.90;;;8.50;75.10;;;7.18;100.00;99607.56;4999464;28;20046;-77
2023/12/14 01:22:34;;;;;;;13.55;11.50;;;8.50;75.10;;;7.12;100.00;99599.88;4969565;28;20106;-77
2023/12/14 01:25:03;;;;;;;15.57;11.05;;;8.40;74.70;;;7.13;100.00;99607.69;4965306;28;20039;-76
2023/12/14 01:27:31;;;;;;;12.77;9.90;;;8.40;75.60;;;7.14;100.00;99619.84;4985314;28;20248;-77
2023/12/14 01:29:58;;;;;;;11.13;9.50;;;8.50;74.20;;;6.93;100.00;99581.94;4985721;28;20047;-77
2023/12/14 01:32:25;;;;;;;13.15;11.65;;;8.60;72.50;;;7.19;100.00;99627.63;4969393;28;20047;-78
2023/12/14 01:34:51;;;;;;;12.00;10.45;;;9.40;73.10;;;7.04;100.00;99592.19;4968234;28;20078;-76
2023/12/14 01:37:19;;;;;;;15.95;12.13;;;8.60;71.00;;;7.24;100.00;99625.75;4969594;28;20725;-77
2023/12/14 01:39:46;;;;;;;14.98;10.98;;;8.50;70.80;;;7.26;100.00;99644.03;4977060;28;20528;-77
2023/12/14 01:42:13;;;;;;;15.10;11.60;;;8.50;70.30;;;7.24;100.00;99644.94;4969052;28;20569;-76
2023/12/14 01:44:40;;;;;;;17.88;11.05;;;8.50;71.20;;;7.23;100.00;99652.81;4967837;28;20038;-77
2023/12/14 01:47:07;;;;;;;12.88;10.90;;;8.50;72.60;;;7.22;100.00;99656.31;4976943;28;20137;-76
2023/12/14 01:49:34;;;;;;;14.07;11.45;;;8.50;72.70;;;7.27;100.00;99664.97;4968652;28;20461;-78
2023/12/14 01:52:01;;;;;;;14.85;11.60;;;8.50;73.70;;;7.29;100.00;99670.13;4984904;28;20039;-77
2023/12/14 01:54:31;;;;;;;14.52;11.60;;;8.50;74.10;;;7.26;100.00;99671.09;4964817;28;20050;-76
2023/12/14 01:56:58;;;;;;;;;;;8.50;74.00;;;7.28;100.00;99687.59;4969348;28;20050;-77
2023/12/14 01:59:26;;;;;;;16.92;12.88;;;8.40;74.90;;;7.22;100.00;99674.63;4992521;28;20458;-76
2023/12/14 02:01:56;;;;;;;16.55;12.57;;;8.40;75.70;;;7.23;100.00;99687.69;4984710;28;20445;-77
2023/12/14 02:04:27;;;;;;;15.90;12.50;;;8.50;76.30;;;7.13;100.00;99675.69;4984377;28;20047;-77
2023/12/14 02:06:54;;;;;;;18.60;12.75;;;9.10;78.10;;;7.13;100.00;99680.94;4969475;28;20042;-76
2023/12/14 02:09:21;;;;;;;17.83;14.43;;;8.40;78.70;;;7.17;100.00;99697.44;4984315;28;20113;-76
2023/12/14 02:11:48;;;;;;;17.15;13.82;;;8.40;79.20;;;7.12;100.00;99688.81;4985161;28;20441;-78
2023/12/14 02:14:15;;;;;;;18.45;13.73;;;8.40;80.00;;;7.04;100.00;99670.66;4984441;28;20134;-77
2023/12/14 02:16:42;;;;;;;18.00;14.43;;;8.40;80.10;;;7.09;100.00;99690.59;4967888;28;20047;-76
2023/12/14 02:19:09;;;;;;;18.63;14.15;;;8.40;81.00;;;7.12;100.00;99686.22;4968344;28;20054;-77
2023/12/14 02:21:36;;;;;;;18.83;14.07;;;8.40;81.30;;;7.07;100.00;99676.69;4976297;28;20417;-77
2023/12/14 02:24:04;;;;;;;19.13;15.25;;;8.50;81.50;;;7.22;100.00;99704.28;4967990;28;20134;-77
2023/12/14 02:26:36;;;;;;;21.92;17.08;;;8.50;79.80;;;7.28;100.00;99700.69;4983711;28;20049;-77
2023/12/14 02:29:03;;;;;;;22.10;17.65;;;8.50;79.00;;;7.33;100.00;99708.41;4977189;28;20046;-77
2023/12/14 02:31:30;;;;;;;25.23;18.25;;;8.40;78.10;;;7.02;100.00;99657.63;4984856;28;20043;-77
2023/12/14 02:33:57;;;;;;;26.55;18.02;;;8.50;78.40;;;7.34;100.00;99721.50;4998976;28;20501;-78
2023/12/14 02:36:25;;;;;;;27.15;18.42;;;8.60;78.00;;;7.36;100.00;99718.84;4983930;28;20047;-77
2023/12/14 02:38:51;;;;;;;22.30;18.05;;;8.60;77.40;;;7.27;100.00;99704.22;4984046;28;20046;-77
2023/12/14 02:41:19;;;;;;;27.10;18.83;;;8.50;77.60;;;7.27;100.00;99713.78;4984007;28;20057;-77
2023/12/14 02:43:46;;;;;;;28.05;17.80;;;8.50;78.00;;;7.29;100.00;99722.47;4969118;28;20266;-77
2023/12/14 02:46:15;;;;;;;26.98;17.67;;;8.60;77.70;;;7.34;100.00;99733.72;4966803;28;20139;-77
2023/12/14 02:48:43;;;;;;;29.53;19.03;;;8.60;77.30;;;7.27;100.00;99730.38;4979622;28;20039;-77
2023/12/14 02:51:14;;;;;;;24.38;18.30;;;8.60;76.70;;;7.41;100.00;99744.91;4989166;28;20051;-77
2023/12/14 02:53:42;;;;;;;27.33;18.13;;;8.60;75.90;;;7.36;100.00;99740.63;4968736;28;20700;-76
2023/12/14 02:56:11;;;;;;;19.70;16.08;;;8.60;75.50;;;7.35;100.00;99743.31;4983115;28;20055;-76
2023/12/14 02:58:38;;;;;;;19.48;15.32;;;8.60;75.50;;;7.33;100.00;99737.22;4967687;28;20046;-77
2023/12/14 03:01:05;;;;;;;20.25;14.95;;;8.60;75.90;;;7.39;100.00;99758.03;4953381;28;20484;-77
2023/12/14 03:03:39;;;;;;;17.92;13.70;;;8.60;75.70;;;7.34;100.00;99744.19;4966780;28;20047;-76
2023/12/14 03:06:06;;;;;;;17.73;14.38;;;8.70;76.40;;;7.34;100.00;99752.03;4967036;28;20046;-77
2023/12/14 03:08:33;;;;;;;15.90;13.55;;;8.70;74.50;;;7.52;100.00;99771.72;4959552;28;20046;-77
2023/12/14 03:11:00;;;;;;;17.65;14.30;;;8.70;73.70;;;7.43;100.00;99756.22;4983401;28;20525;-76
2023/12/14 03:13:28;;;;;;;16.40;14.57;;;8.70;73.00;;;7.48;100.00;99767.44;4974833;28;20057;-76
2023/12/14 03:15:55;;;;;;;20.88;15.30;;;8.80;72.10;;;7.50;100.00;99773.50;4966629;28;20053;-77
2023/12/14 03:18:22;;;;;;;18.77;14.73;;;8.70;72.30;;;7.51;100.00;99773.50;4983518;28;20055;-78
2023/12/14 03:20:50;;;;;;;16.67;14.13;;;8.80;72.50;;;7.48;100.00;99762.22;4968495;28;20035;-77
2023/12/14 03:23:17;;;;;;;17.77;14.55;;;8.80;71.30;;;7.54;100.00;99769.94;4950391;28;20045;-78
2023/12/14 03:25:44;;;;;;;18.65;15.27;;;8.80;68.90;;;7.49;100.00;99763.94;4986932;28;20050;-78
2023/12/14 03:28:11;;;;;;;18.00;14.38;;;8.80;69.20;;;7.60;100.00;99796.00;4983374;28;20146;-77
2023/12/14 03:30:38;;;;;;;19.88;15.30;;;8.80;69.60;;;7.57;100.00;99785.59;4966976;28;20053;-76
2023/12/14 03:33:07;;;;;;;19.67;14.65;;;8.70;70.30;;;7.52;100.00;99787.44;4964786;28;20055;-77
2023/12/14 03:35:37;;;;;;;19.88;15.85;;;8.70;71.00;;;7.47;100.00;99782.28;4958331;28;20051;-76
2023/12/14 03:38:08;;;;;;;18.48;15.45;;;8.70;71.90;;;7.42;100.00;99776.28;4979765;28;20124;-77
2023/12/14 03:40:35;;;;;;;19.05;15.77;;;8.80;70.50;;;7.38;100.00;99772.88;4985922;28;20210;-77
2023/12/14 03:43:03;;;;;;;16.77;14.38;;;8.80;69.80;;;7.52;100.00;99800.53;4988923;28;20057;-77
2023/12/14 03:45:30;;;;;;;19.75;14.50;;;8.80;68.60;;;7.53;100.00;99804.84;4973030;28;20043;-77
2023/12/14 03:47:57;;;;;;;17.42;13.85;;;8.80;68.90;;;7.60;100.00;99818.69;4966616;28;20047;-77
2023/12/14 03:50:24;;;;;;;18.67;13.90;;;8.80;68.80;;;7.36;100.00;99785.13;4982988;28;20051;-77
2023/12/14 03:52:51;;;;;;;18.20;14.70;;;8.80;67.80;;;7.49;100.00;99805.81;4974502;28;20180;-76
2023/12/14 03:55:21;;;;;;;18.02;14.00;;;8.80;68.50;;;7.51;100.00;99806.66;4966611;28;20053;-77
2023/12/14 03:57:48;;;;;;;18.95;14.43;;;8.90;68.80;;;7.47;100.00;99824.16;4966916;28;20047;-76
2023/12/14 04:00:15;;;;;;;18.23;13.38;;;8.80;67.10;;;7.55;100.00;99828.41;4966890;28;20720;-76
2023/12/14 04:02:42;;;;;;;18.55;14.07;;;8.90;68.40;;;7.52;100.00;99822.34;4966575;28;20057;-76
2023/12/14 04:05:10;;;;;;;17.20;14.57;;;8.90;68.00;;;7.56;100.00;99830.97;4965811;28;20429;-77
2023/12/14 04:07:41;;;;;;;19.48;15.13;;;8.90;67.40;;;7.66;100.00;99845.59;4968070;28;20057;-77
2023/12/14 04:10:10;;;;;;;19.77;14.70;;;8.90;67.00;;;7.51;100.00;99835.44;4972197;28;20054;-77
2023/12/14 04:12:38;;;;;;;19.73;14.90;;;8.80;67.40;;;7.49;100.00;99832.00;4971033;28;20038;-78
2023/12/14 04:15:07;;;;;;;19.05;14.82;;;8.90;67.60;;;7.54;100.00;99855.47;4965692;28;20053;-77
2023/12/14 04:17:37;;;;;;;19.35;14.40;;;8.90;67.50;;;7.50;100.00;99844.19;4966600;28;20058;-77
2023/12/14 04:20:06;;;;;;;18.98;15.27;;;8.90;67.20;;;7.61;100.00;99871.03;4966285;28;20085;-77
2023/12/14 04:22:33;;;;;;;20.60;15.57;;;8.90;69.80;;;7.62;100.00;99862.28;4966579;28;20070;-78
2023/12/14 04:25:01;;;;;;;18.88;14.35;;;8.90;69.00;;;7.50;100.00;99847.69;4964339;28;20047;-77
2023/12/14 04:27:29;;;;;;;21.02;15.95;;;8.90;69.80;;;7.55;100.00;99855.44;4966382;28;20034;-78
2023/12/14 04:29:56;;;;;;;23.05;16.15;;;8.90;69.10;;;7.65;100.00;99872.69;4970145;28;20046;-78
2023/12/14 04:32:23;;;;;;;19.77;17.15;;;8.90;69.50;;;7.72;100.00;99885.66;4986188;28;20042;-78
2023/12/14 04:34:50;;;;;;;21.67;16.45;;;8.90;68.30;;;7.70;100.00;99892.69;4981180;28;20146;-77
2023/12/14 04:37:18;;;;;;;27.73;18.90;;;8.90;67.80;;;7.61;100.00;99881.50;4966304;28;20121;-78
2023/12/14 04:39:45;;;;;;;23.75;17.30;;;8.90;67.50;;;7.61;100.00;99881.50;4965968;28;20134;-78
2023/12/14 04:42:12;;;;;;;19.00;15.20;;;8.90;67.80;;;7.69;100.00;99894.44;4970638;28;20039;-78
2023/12/14 04:44:39;;;;;;;23.20;17.02;;;8.90;67.20;;;7.57;100.00;99876.34;4972129;28;20066;-77
2023/12/14 04:47:06;;;;;;;19.45;15.68;;;8.90;67.00;;;7.63;100.00;99891.94;4974014;28;20077;-78
2023/12/14 19:46:14;;;;;;;6.07;5.00;;;8.40;1.00;;;7.36;100.00;101313.88;4955554;27;20129;-73
2023/12/14 19:48:42;;;;;;;7.55;5.72;;;8.50;64.50;;;8.77;100.00;101372.72;5003067;28;20049;-72
2023/12/14 19:51:10;;;;;;;5.63;4.35;;;9.50;28.40;;;8.72;100.00;101369.22;5040548;28;20041;-75
2023/12/14 19:53:38;;;;;;;5.40;4.60;;;9.70;17.10;;;8.12;100.00;101315.84;5058500;28;20417;-74
2023/12/14 19:56:11;;;;;;;7.80;5.68;;;9.70;68.60;;;8.17;100.00;101363.03;5051982;28;20055;-74
2023/12/14 19:58:53;;;;;;;5.60;4.88;;;9.30;1.00;;;7.76;100.00;101348.94;5038921;28;20055;-73
2023/12/14 20:01:33;;;;;;;7.57;5.13;;;9.10;1.00;;;7.31;100.00;101310.34;5026758;28;20527;-74
2023/12/14 20:04:21;;;;;;;10.13;6.13;;;9.00;1.00;;;7.35;100.00;101356.63;5051271;28;20076;-73
2023/12/14 20:08:00;;;;;;;;;;;;;;;;;;;;;
2023/12/14 20:11:05;;;;;;;7.30;5.68;;;8.70;43.30;;;7.39;100.00;101394.19;5042382;28;20419;-73
2023/12/14 20:13:47;;;;;;;5.75;4.95;;;8.70;66.40;;;7.40;100.00;101406.41;5041746;28;20431;-73
2023/12/14 20:16:34;;;;;;;8.25;6.80;;;8.60;1.00;;;7.16;100.00;101386.19;5040924;28;20040;-73
2023/12/14 20:19:08;;;;;;;6.82;5.68;;;8.50;1.00;;;7.05;100.00;101379.13;5053236;22;20045;-79
2023/12/14 20:21:37;;;;;;;8.50;5.60;;;8.50;14.40;;;7.12;100.00;101408.84;5027549;28;20590;-78
2023/12/14 20:24:10;;;;;;;8.00;5.72;;;8.50;28.70;;;7.18;100.00;101421.09;5024061;28;20041;-77
2023/12/14 20:26:37;;;;;;;6.97;5.40;;;8.50;99.90;;;7.19;100.00;101422.84;5017891;28;20041;-78
2023/12/14 20:29:07;;;;;;;7.68;5.40;;;8.40;58.00;;;6.93;100.00;101390.38;5038485;28;20041;-78
2023/12/14 20:31:38;;;;;;;7.90;5.45;;;9.50;99.30;;;7.06;100.00;101422.75;5022533;28;20100;-77
2023/12/14 20:34:06;;;;;;;7.10;5.38;;;9.10;99.90;;;7.05;100.00;101425.38;5025642;28;20045;-78
2023/12/14 20:36:33;;;;;;;7.35;5.88;;;8.40;12.60;;;7.02;100.00;101431.44;5016984;28;20103;-78
2023/12/14 20:39:03;;;;;;;7.07;5.20;;;8.40;78.40;;;7.12;100.00;101444.63;5012775;28;20046;-77
2023/12/14 20:41:31;;;;;;;8.10;5.97;;;8.40;1.00;;;7.08;100.00;101447.19;5032754;28;20153;-77
2023/12/14 20:43:58;;;;;;;7.10;5.63;;;8.40;1.00;;;6.94;100.00;101439.25;5022838;28;20048;-77
2023/12/14 20:46:25;;;;;;;6.90;5.47;;;8.30;1.00;;;7.06;100.00;101469.00;5044368;28;20140;-77
2023/12/14 20:48:53;;;;;;;7.63;5.88;;;8.30;1.00;;;6.87;100.00;101460.09;5025207;28;20045;-79
2023/12/14 20:51:22;;;;;;;9.05;6.13;;;8.30;1.00;;;6.92;100.00;101471.47;5025522;28;20520;-76
2023/12/14 20:53:50;;;;;;;7.82;5.95;;;8.30;22.20;;;6.78;100.00;101471.38;5025607;28;20080;-78
2023/12/14 20:56:20;;;;;;;7.57;6.38;;;8.30;67.30;;;6.89;100.00;101474.97;4996119;28;20062;-78
2023/12/14 20:58:51;;;;;;;7.80;5.72;;;8.20;48.00;;;6.94;100.00;101498.53;5037614;28;20037;-78
2023/12/14 21:01:21;;;;;;;8.15;6.35;;;8.20;90.80;;;6.63;100.00;101438.97;5018902;28;20653;-79
2023/12/14 21:03:52;;;;;;;9.82;6.57;;;8.20;63.20;;;6.95;100.00;101505.53;4985171;28;20035;-79
2023/12/14 21:06:20;;;;;;;6.70;5.97;;;8.20;95.10;;;6.50;100.00;101453.66;4991695;28;20042;-80
2023/12/14 21:08:52;;;;;;;8.30;6.82;;;8.20;30.10;;;6.26;100.00;101406.34;5003279;28;20049;-80
2023/12/14 21:11:22;;;;;;;6.93;5.72;;;8.30;99.90;;;6.49;100.00;101440.56;4999680;28;20046;-81
2023/12/14 21:13:51;;;;;;;7.30;6.43;;;8.30;99.90;;;6.88;100.00;101519.41;5021569;28;20050;-80
2023/12/14 21:16:18;;;;;;;8.10;6.43;;;9.00;99.90;;;6.89;100.00;101502.84;5008156;28;20042;-77
2023/12/14 21:18:46;;;;;;;7.53;5.90;;;8.30;99.90;;;7.01;100.00;101523.91;5006722;28;20050;-79
2023/12/14 21:21:14;;;;;;;8.35;5.57;;;8.30;99.90;;;6.48;100.00;101444.03;4984710;28;20050;-80
2023/12/14 21:23:41;;;;;;;6.15;5.22;;;8.30;99.90;;;6.99;100.00;101546.56;5015081;28;20082;-80
2023/12/14 21:26:12;;;;;;;6.32;5.47;;;9.70;99.90;;;6.40;100.00;101451.81;4999166;28;20050;-78
2023/12/14 21:28:39;;;;;;;5.82;5.20;;;9.50;99.90;;;6.46;100.00;101462.31;4987963;28;20053;-80
2023/12/14 21:31:06;;;;;;;6.43;4.72;;;8.80;99.90;;;6.81;100.00;101542.00;5028952;28;20418;-81
2023/12/14 21:33:34;;;;;;;6.88;4.53;;;8.20;99.90;;;6.56;100.00;101485.97;4983893;28;20112;-79
2023/12/14 21:36:04;;;;;;;6.45;5.30;;;8.20;99.90;;;6.33;100.00;101471.78;4974593;28;20046;-79
2023/12/14 21:38:32;;;;;;;5.82;4.80;;;8.20;99.90;;;6.64;100.00;101531.38;4996979;28;20041;-78
2023/12/14 21:41:00;;;;;;;7.43;5.80;;;8.20;99.90;;;6.80;100.00;101546.38;5008709;28;20053;-78
2023/12/14 21:43:27;;;;;;;6.90;6.20;;;8.10;99.90;;;6.72;100.00;101548.03;4999349;28;20161;-78
2023/12/14 21:45:54;;;;;;;8.13;6.63;;;8.10;1.00;;;6.40;100.00;101496.25;5006982;28;20104;-80
2023/12/14 21:48:22;;;;;;;8.48;7.07;;;8.00;1.00;;;6.80;100.00;101575.16;5008077;28;20041;-78
2023/12/14 21:50:50;;;;;;;8.43;6.68;;;8.00;1.00;;;6.72;100.00;101570.72;5007411;28;20049;-77
2023/12/14 21:53:17;;;;;;;10.55;6.85;;;8.00;1.00;;;5.99;100.00;101455.66;5007839;28;20046;-78
2023/12/14 21:55:45;;;;;;;8.52;7.03;;;8.00;1.00;;;6.71;100.00;101584.63;4982370;28;20042;-78
2023/12/14 21:58:12;;;;;;;12.27;8.70;;;7.90;1.00;;;6.51;100.00;101554.78;5016726;28;20161;-79
2023/12/14 22:00:39;;;;;;;12.02;8.68;;;8.40;1.00;;;6.26;100.00;101535.31;4991316;28;20120;-79
2023/12/14 22:03:06;;;;;;;13.77;9.32;;;8.10;1.00;;;6.01;100.00;101494.84;4975558;28;20136;-78
2023/12/14 22:05:34;;;;;;;12.85;8.98;;;7.90;1.00;;;6.46;100.00;101561.66;5000421;28;20061;-80
2023/12/14 22:08:01;;;;;;;22.50;12.48;;;7.90;1.00;;;6.53;100.00;101584.44;5009100;28;20066;-77
2023/12/14 22:10:28;;;;;;;12.10;8.32;;;9.10;1.00;;;6.37;100.00;101574.66;4993338;28;20070;-76
2023/12/14 22:12:55;;;;;;;14.50;8.88;;;7.70;1.00;;;6.42;100.00;101579.94;4975257;28;20042;-78
2023/12/14 22:15:24;;;;;;;17.33;9.30;;;7.80;1.00;;;6.48;100.00;101593.97;5005293;28;20052;-76
2023/12/14 22:17:51;;;;;;;25.90;13.20;;;8.20;1.00;;;6.04;100.00;101536.75;4982719;28;20424;-79
2023/12/14 22:20:19;;;;;;;29.38;15.70;;;7.80;1.00;;;6.32;100.00;101578.91;4998433;28;20151;-79
2023/12/14 22:22:46;;;;;;;25.83;13.63;;;7.80;1.00;;;6.04;100.00;101519.31;4988627;28;20148;-80
2023/12/14 22:25:13;;;;;;;30.60;15.80;;;8.20;1.00;;;6.40;100.00;101585.13;5000079;28;20061;-78
2023/12/14 22:27:40;;;;;;;31.75;16.88;;;7.80;1.00;;;6.43;100.00;101597.38;4996796;28;20050;-77
2023/12/14 22:30:08;;;;;;;27.45;15.23;;;7.80;1.00;;;5.89;100.00;101516.47;5008932;28;20045;-79
2023/12/14 22:32:35;;;;;;;24.45;14.55;;;7.80;1.00;;;6.46;100.00;101602.66;4993198;28;20061;-80
2023/12/14 22:35:03;;;;;;;39.33;19.08;;;8.00;1.00;;;6.32;100.00;101585.03;5008689;28;20116;-78
2023/12/14 22:37:30;;;;;;;32.13;17.63;;;7.80;1.00;;;6.44;100.00;101610.44;5006633;28;20065;-79
2023/12/14 22:39:57;;;;;;;16.45;10.20;;;7.80;1.00;;;6.34;100.00;101595.53;5020293;28;20124;-78
2023/12/14 22:42:24;;;;;;;14.13;9.13;;;7.80;1.00;;;6.13;100.00;101575.19;5031220;28;20411;-78
2023/12/14 22:44:51;;;;;;;12.85;9.52;;;7.90;1.00;;;5.74;100.00;101514.53;5009778;28;20042;-80
2023/12/14 22:47:18;;;;;;;12.18;9.77;;;7.80;1.00;;;6.35;100.00;101610.34;5010620;28;20053;-80
2023/12/14 22:49:46;;;;;;;13.18;8.77;;;8.80;1.00;;;6.38;100.00;101610.38;5010499;28;20050;-78
2023/12/14 22:52:13;;;;;;;13.00;9.68;;;7.80;1.00;;;6.47;100.00;101636.63;5011073;28;20049;-80
2023/12/14 22:54:40;;;;;;;12.20;9.15;;;7.80;1.00;;;6.33;100.00;101620.78;4993780;28;20422;-78
2023/12/14 22:57:07;;;;;;;12.85;9.85;;;7.80;1.00;;;6.43;100.00;101647.91;5002877;28;20049;-79
2023/12/14 22:59:38;;;;;;;11.93;8.45;;;7.80;1.00;;;6.31;100.00;101627.72;4988510;28;20050;-80
2023/12/14 23:02:06;;;;;;;12.68;8.80;;;7.80;1.00;;;6.17;100.00;101609.25;5008497;28;20038;-78
2023/12/14 23:04:36;;;;;;;11.35;9.15;;;7.80;1.00;;;6.27;100.00;101627.66;5002576;28;20042;-78
2023/12/14 23:07:06;;;;;;;12.05;8.73;;;7.80;1.00;;;6.33;100.00;101648.66;4992972;28;20099;-80
2023/12/14 23:09:33;;;;;;;10.98;8.88;;;8.10;1.00;;;5.88;100.00;101590.47;4995217;28;20052;-80
2023/12/14 23:12:00;;;;;;;20.27;14.48;;;8.70;1.00;;;6.44;100.00;101677.56;4989307;28;20540;-80
2023/12/14 23:14:27;;;;;;;15.00;12.20;;;8.30;1.00;;;6.35;100.00;101667.88;4987694;28;20046;-77
2023/12/14 23:16:55;;;;;;;16.13;12.68;;;7.70;1.00;;;5.90;100.00;101592.25;5030490;28;20057;-80
2023/12/14 23:19:22;;;;;;;11.90;9.55;;;7.70;1.00;;;5.82;100.00;101588.66;5009718;28;20505;-79
2023/12/14 23:21:49;;;;;;;11.25;8.40;;;7.60;1.00;;;6.35;100.00;101686.16;5023331;28;20041;-78
2023/12/14 23:24:17;;;;;;;12.02;8.63;;;7.70;1.00;;;6.24;100.00;101685.97;5030231;28;20065;-78
2023/12/14 23:26:43;;;;;;;10.73;8.13;;;8.50;1.00;;;6.14;100.00;101671.91;4988554;28;20141;-77
2023/12/14 23:29:11;;;;;;;10.70;7.88;;;7.70;1.00;;;6.18;100.00;101680.66;4998829;28;20042;-79
2023/12/14 23:31:38;;;;;;;9.27;7.40;;;7.60;1.00;;;6.14;100.00;101705.88;5013907;28;20559;-76
2023/12/14 23:34:05;;;;;;;9.85;7.57;;;7.60;1.00;;;6.07;100.00;101707.50;4986400;28;20301;-77
2023/12/14 23:36:32;;;;;;;11.18;7.40;;;7.50;1.00;;;6.16;100.00;101700.69;5011157;28;20136;-80
2023/12/14 23:38:59;;;;;;;8.98;7.78;;;7.50;1.00;;;5.92;100.00;101671.53;5017762;28;20060;-77
2023/12/14 23:41:26;;;;;;;11.35;9.02;;;7.50;1.00;;;5.79;100.00;101653.91;4997984;28;20037;-78
2023/12/14 23:43:54;;;;;;;8.88;7.82;;;7.60;1.00;;;5.75;100.00;101649.50;5003310;28;20057;-78
2023/12/14 23:46:22;;;;;;;10.85;9.38;;;7.70;1.00;;;5.40;100.00;101593.19;5001822;28;20064;-79
2023/12/14 23:48:49;;;;;;;8.35;6.78;;;7.60;1.00;;;5.45;100.00;101604.59;5004322;28;20092;-78
2023/12/14 23:51:17;;;;;;;11.15;7.55;;;7.50;1.00;;;6.15;100.00;101712.84;4990005;28;20504;-77
2023/12/14 23:53:44;;;;;;;11.30;7.55;;;8.00;1.00;;;5.96;100.00;101686.41;4997909;28;20049;-78
2023/12/14 23:56:12;;;;;;;9.82;7.45;;;8.60;1.00;;;5.96;100.00;101678.56;5002181;28;20166;-77
2023/12/14 23:58:39;;;;;;;9.52;8.02;;;8.30;1.00;;;6.10;100.00;101724.97;5002420;28;20096;-78
